sensor_id;sensor_type;location;lat;lon;timestamp;temperature;humidity
53272;DHT22;39160;48.580;7.756;2023-08-30T00:01:53;18.30;99.90
53272;DHT22;39160;48.580;7.756;2023-08-30T00:06:43;18.30;99.90
53272;DHT22;39160;48.580;7.756;2023-08-30T00:11:34;18.40;99.90
53272;DHT22;39160;48.580;7.756;2023-08-30T00:16:25;18.20;99.90
53272;DHT22;39160;48.580;7.756;2023-08-30T00:21:16;18.30;99.90
53272;DHT22;39160;48.580;7.756;2023-08-30T00:26:07;18.30;99.90
53272;DHT22;39160;48.580;7.756;2023-08-30T00:31:01;18.30;99.90
53272;DHT22;39160;48.580;7.756;2023-08-30T00:35:58;18.30;99.90
53272;DHT22;39160;48.580;7.756;2023-08-30T00:40:49;18.30;99.90
53272;DHT22;39160;48.580;7.756;2023-08-30T00:45:40;18.20;99.90
53272;DHT22;39160;48.580;7.756;2023-08-30T00:50:31;18.10;99.90
53272;DHT22;39160;48.580;7.756;2023-08-30T00:55:22;18.20;99.90
53272;DHT22;39160;48.580;7.756;2023-08-30T01:00:13;18.10;99.90
53272;DHT22;39160;48.580;7.756;2023-08-30T01:05:04;18.10;99.90
53272;DHT22;39160;48.580;7.756;2023-08-30T01:09:55;18.10;99.90
53272;DHT22;39160;48.580;7.756;2023-08-30T01:15:00;18.10;99.90
53272;DHT22;39160;48.580;7.756;2023-08-30T01:20:00;18.10;99.90
53272;DHT22;39160;48.580;7.756;2023-08-30T01:25:08;18.00;99.90
53272;DHT22;39160;48.580;7.756;2023-08-30T01:29:59;18.00;99.90
53272;DHT22;39160;48.580;7.756;2023-08-30T01:34:51;18.00;99.90
53272;DHT22;39160;48.580;7.756;2023-08-30T01:39:43;18.10;99.90
53272;DHT22;39160;48.580;7.756;2023-08-30T01:44:35;18.10;99.90
53272;DHT22;39160;48.580;7.756;2023-08-30T01:49:28;18.00;99.90
53272;DHT22;39160;48.580;7.756;2023-08-30T01:54:22;17.90;99.90
53272;DHT22;39160;48.580;7.756;2023-08-30T01:59:14;18.00;99.90
53272;DHT22;39160;48.580;7.756;2023-08-30T02:04:05;18.00;99.90
53272;DHT22;39160;48.580;7.756;2023-08-30T02:14:11;17.80;99.90
53272;DHT22;39160;48.580;7.756;2023-08-30T02:19:07;17.60;99.90
53272;DHT22;39160;48.580;7.756;2023-08-30T02:23:58;17.70;99.90
53272;DHT22;39160;48.580;7.756;2023-08-30T02:28:49;17.80;99.90
53272;DHT22;39160;48.580;7.756;2023-08-30T02:33:39;17.80;99.90
53272;DHT22;39160;48.580;7.756;2023-08-30T02:38:30;17.70;99.90
53272;DHT22;39160;48.580;7.756;2023-08-30T02:43:21;17.80;99.90
53272;DHT22;39160;48.580;7.756;2023-08-30T02:48:12;17.80;99.90
53272;DHT22;39160;48.580;7.756;2023-08-30T02:53:03;17.80;99.90
53272;DHT22;39160;48.580;7.756;2023-08-30T02:57:54;17.80;99.90
53272;DHT22;39160;48.580;7.756;2023-08-30T03:02:44;17.70;99.90
53272;DHT22;39160;48.580;7.756;2023-08-30T03:07:35;17.80;99.90
53272;DHT22;39160;48.580;7.756;2023-08-30T03:12:26;17.80;99.90
53272;DHT22;39160;48.580;7.756;2023-08-30T03:17:17;17.80;99.90
53272;DHT22;39160;48.580;7.756;2023-08-30T03:22:09;17.70;99.90
53272;DHT22;39160;48.580;7.756;2023-08-30T03:27:00;17.70;99.90
53272;DHT22;39160;48.580;7.756;2023-08-30T03:31:51;17.70;99.90
53272;DHT22;39160;48.580;7.756;2023-08-30T03:36:41;17.60;99.90
53272;DHT22;39160;48.580;7.756;2023-08-30T03:41:34;17.60;99.90
53272;DHT22;39160;48.580;7.756;2023-08-30T03:46:26;17.70;99.90
53272;DHT22;39160;48.580;7.756;2023-08-30T03:51:17;17.60;99.90
53272;DHT22;39160;48.580;7.756;2023-08-30T03:56:08;17.60;99.90
53272;DHT22;39160;48.580;7.756;2023-08-30T04:00:58;17.50;99.90
53272;DHT22;39160;48.580;7.756;2023-08-30T04:05:55;17.50;99.90
53272;DHT22;39160;48.580;7.756;2023-08-30T04:10:46;17.60;99.90
53272;DHT22;39160;48.580;7.756;2023-08-30T04:15:39;17.60;99.90
53272;DHT22;39160;48.580;7.756;2023-08-30T04:20:30;17.50;99.90
53272;DHT22;39160;48.580;7.756;2023-08-30T04:25:21;17.50;99.90
53272;DHT22;39160;48.580;7.756;2023-08-30T04:30:12;17.50;99.90
53272;DHT22;39160;48.580;7.756;2023-08-30T04:35:03;17.50;99.90
53272;DHT22;39160;48.580;7.756;2023-08-30T04:39:55;17.50;99.90
53272;DHT22;39160;48.580;7.756;2023-08-30T04:44:45;17.40;99.90
53272;DHT22;39160;48.580;7.756;2023-08-30T04:49:36;17.40;99.90
53272;DHT22;39160;48.580;7.756;2023-08-30T04:54:27;17.40;99.90
53272;DHT22;39160;48.580;7.756;2023-08-30T04:59:18;17.40;99.90
53272;DHT22;39160;48.580;7.756;2023-08-30T05:04:09;17.40;99.90
53272;DHT22;39160;48.580;7.756;2023-08-30T05:09:00;17.40;99.90
53272;DHT22;39160;48.580;7.756;2023-08-30T05:13:53;17.40;99.90
53272;DHT22;39160;48.580;7.756;2023-08-30T05:18:47;17.30;99.90
53272;DHT22;39160;48.580;7.756;2023-08-30T05:23:38;17.30;99.90
53272;DHT22;39160;48.580;7.756;2023-08-30T05:28:32;17.40;99.90
53272;DHT22;39160;48.580;7.756;2023-08-30T05:33:25;17.20;99.90
53272;DHT22;39160;48.580;7.756;2023-08-30T05:38:16;17.30;99.90
53272;DHT22;39160;48.580;7.756;2023-08-30T05:43:06;17.30;99.90
53272;DHT22;39160;48.580;7.756;2023-08-30T05:47:57;17.30;99.90
53272;DHT22;39160;48.580;7.756;2023-08-30T05:52:48;17.30;99.90
53272;DHT22;39160;48.580;7.756;2023-08-30T05:57:38;17.30;99.90
53272;DHT22;39160;48.580;7.756;2023-08-30T06:02:29;17.30;99.90
53272;DHT22;39160;48.580;7.756;2023-08-30T06:07:20;17.30;99.90
53272;DHT22;39160;48.580;7.756;2023-08-30T06:12:10;17.40;99.90
53272;DHT22;39160;48.580;7.756;2023-08-30T06:17:01;17.40;99.90
53272;DHT22;39160;48.580;7.756;2023-08-30T06:21:53;17.40;99.90
53272;DHT22;39160;48.580;7.756;2023-08-30T06:26:44;17.50;99.90
53272;DHT22;39160;48.580;7.756;2023-08-30T06:31:35;17.50;99.90
53272;DHT22;39160;48.580;7.756;2023-08-30T06:36:26;17.40;99.90
53272;DHT22;39160;48.580;7.756;2023-08-30T06:41:17;17.50;99.90
53272;DHT22;39160;48.580;7.756;2023-08-30T06:46:07;17.60;99.90
53272;DHT22;39160;48.580;7.756;2023-08-30T06:50:58;17.60;99.90
53272;DHT22;39160;48.580;7.756;2023-08-30T06:56:02;17.60;99.90
53272;DHT22;39160;48.580;7.756;2023-08-30T07:00:53;17.60;99.90
53272;DHT22;39160;48.580;7.756;2023-08-30T07:05:43;17.60;99.90
53272;DHT22;39160;48.580;7.756;2023-08-30T07:10:34;17.60;99.90
53272;DHT22;39160;48.580;7.756;2023-08-30T07:15:25;17.70;99.90
53272;DHT22;39160;48.580;7.756;2023-08-30T07:20:17;17.70;99.90
53272;DHT22;39160;48.580;7.756;2023-08-30T07:25:07;17.60;99.90
53272;DHT22;39160;48.580;7.756;2023-08-30T07:30:03;17.70;99.90
53272;DHT22;39160;48.580;7.756;2023-08-30T07:34:54;17.70;99.90
53272;DHT22;39160;48.580;7.756;2023-08-30T07:39:45;17.70;99.90
53272;DHT22;39160;48.580;7.756;2023-08-30T07:44:36;17.80;99.90
53272;DHT22;39160;48.580;7.756;2023-08-30T07:49:26;17.80;99.90
53272;DHT22;39160;48.580;7.756;2023-08-30T07:54:17;17.90;99.90
53272;DHT22;39160;48.580;7.756;2023-08-30T07:59:08;18.00;99.90
53272;DHT22;39160;48.580;7.756;2023-08-30T08:03:58;17.90;99.90
53272;DHT22;39160;48.580;7.756;2023-08-30T08:08:49;17.90;99.90
53272;DHT22;39160;48.580;7.756;2023-08-30T08:13:40;18.00;99.90
53272;DHT22;39160;48.580;7.756;2023-08-30T08:18:39;18.00;99.90
53272;DHT22;39160;48.580;7.756;2023-08-30T08:23:33;18.10;99.90
53272;DHT22;39160;48.580;7.756;2023-08-30T08:28:24;18.10;99.90
53272;DHT22;39160;48.580;7.756;2023-08-30T08:33:18;18.10;99.90
53272;DHT22;39160;48.580;7.756;2023-08-30T08:38:08;18.10;99.90
53272;DHT22;39160;48.580;7.756;2023-08-30T08:42:59;18.10;99.90
53272;DHT22;39160;48.580;7.756;2023-08-30T08:47:50;18.20;99.90
53272;DHT22;39160;48.580;7.756;2023-08-30T08:52:41;18.30;99.90
53272;DHT22;39160;48.580;7.756;2023-08-30T08:57:32;18.40;99.90
53272;DHT22;39160;48.580;7.756;2023-08-30T09:02:27;18.50;99.90
53272;DHT22;39160;48.580;7.756;2023-08-30T09:07:19;18.60;99.90
53272;DHT22;39160;48.580;7.756;2023-08-30T09:12:10;18.60;99.90
53272;DHT22;39160;48.580;7.756;2023-08-30T09:17:03;18.60;99.90
53272;DHT22;39160;48.580;7.756;2023-08-30T09:21:54;18.60;99.90
53272;DHT22;39160;48.580;7.756;2023-08-30T09:26:50;18.70;99.90
53272;DHT22;39160;48.580;7.756;2023-08-30T09:31:41;18.80;99.90
53272;DHT22;39160;48.580;7.756;2023-08-30T09:36:36;18.80;99.90
53272;DHT22;39160;48.580;7.756;2023-08-30T09:41:27;18.70;99.90
53272;DHT22;39160;48.580;7.756;2023-08-30T09:46:21;18.80;99.90
53272;DHT22;39160;48.580;7.756;2023-08-30T09:51:15;18.90;99.90
53272;DHT22;39160;48.580;7.756;2023-08-30T09:56:07;18.90;99.90
53272;DHT22;39160;48.580;7.756;2023-08-30T10:01:00;19.00;99.90
53272;DHT22;39160;48.580;7.756;2023-08-30T10:05:54;19.10;99.90
53272;DHT22;39160;48.580;7.756;2023-08-30T10:10:49;19.20;99.90
53272;DHT22;39160;48.580;7.756;2023-08-30T10:15:45;19.20;99.90
53272;DHT22;39160;48.580;7.756;2023-08-30T10:20:37;19.20;99.90
53272;DHT22;39160;48.580;7.756;2023-08-30T10:25:32;19.20;99.90
53272;DHT22;39160;48.580;7.756;2023-08-30T10:30:24;19.20;99.90
53272;DHT22;39160;48.580;7.756;2023-08-30T10:35:17;19.30;99.90
53272;DHT22;39160;48.580;7.756;2023-08-30T10:40:11;19.30;99.90
53272;DHT22;39160;48.580;7.756;2023-08-30T10:45:06;19.40;99.90
53272;DHT22;39160;48.580;7.756;2023-08-30T10:50:00;19.60;99.90
53272;DHT22;39160;48.580;7.756;2023-08-30T10:55:08;19.70;99.90
53272;DHT22;39160;48.580;7.756;2023-08-30T11:05:09;19.80;99.90
53272;DHT22;39160;48.580;7.756;2023-08-30T11:10:00;19.70;99.90
53272;DHT22;39160;48.580;7.756;2023-08-30T11:14:54;19.70;99.90
53272;DHT22;39160;48.580;7.756;2023-08-30T11:19:45;19.70;99.90
53272;DHT22;39160;48.580;7.756;2023-08-30T11:24:36;19.70;99.90
53272;DHT22;39160;48.580;7.756;2023-08-30T11:29:27;19.70;99.90
53272;DHT22;39160;48.580;7.756;2023-08-30T11:34:21;19.80;99.90
53272;DHT22;39160;48.580;7.756;2023-08-30T11:39:16;19.90;99.90
53272;DHT22;39160;48.580;7.756;2023-08-30T11:44:08;20.00;99.90
53272;DHT22;39160;48.580;7.756;2023-08-30T11:49:03;20.20;99.90
53272;DHT22;39160;48.580;7.756;2023-08-30T11:53:54;20.30;99.90
53272;DHT22;39160;48.580;7.756;2023-08-30T11:58:48;20.40;99.90
53272;DHT22;39160;48.580;7.756;2023-08-30T12:03:39;20.50;99.90
53272;DHT22;39160;48.580;7.756;2023-08-30T12:08:31;20.60;99.90
53272;DHT22;39160;48.580;7.756;2023-08-30T12:13:28;20.50;99.90
53272;DHT22;39160;48.580;7.756;2023-08-30T12:18:27;20.50;99.90
53272;DHT22;39160;48.580;7.756;2023-08-30T12:23:22;20.50;99.90
53272;DHT22;39160;48.580;7.756;2023-08-30T12:28:13;20.60;99.90
53272;DHT22;39160;48.580;7.756;2023-08-30T12:33:07;20.60;99.90
53272;DHT22;39160;48.580;7.756;2023-08-30T12:38:00;20.70;99.90
53272;DHT22;39160;48.580;7.756;2023-08-30T12:42:51;20.90;99.90
53272;DHT22;39160;48.580;7.756;2023-08-30T12:47:42;20.80;99.90
53272;DHT22;39160;48.580;7.756;2023-08-30T12:52:32;20.80;99.90
53272;DHT22;39160;48.580;7.756;2023-08-30T12:57:23;20.80;99.90
53272;DHT22;39160;48.580;7.756;2023-08-30T13:02:13;20.70;99.90
53272;DHT22;39160;48.580;7.756;2023-08-30T13:07:05;20.80;99.90
53272;DHT22;39160;48.580;7.756;2023-08-30T13:11:55;20.80;99.90
53272;DHT22;39160;48.580;7.756;2023-08-30T13:16:46;20.90;99.90
53272;DHT22;39160;48.580;7.756;2023-08-30T13:21:36;21.10;99.90
53272;DHT22;39160;48.580;7.756;2023-08-30T13:26:28;21.20;99.90
53272;DHT22;39160;48.580;7.756;2023-08-30T13:31:19;21.20;99.90
53272;DHT22;39160;48.580;7.756;2023-08-30T13:36:09;21.30;99.90
53272;DHT22;39160;48.580;7.756;2023-08-30T13:41:00;21.60;99.90
53272;DHT22;39160;48.580;7.756;2023-08-30T13:45:57;22.00;99.90
53272;DHT22;39160;48.580;7.756;2023-08-30T13:50:49;22.20;99.90
53272;DHT22;39160;48.580;7.756;2023-08-30T13:55:40;22.00;99.90
53272;DHT22;39160;48.580;7.756;2023-08-30T14:00:34;21.80;99.90
53272;DHT22;39160;48.580;7.756;2023-08-30T14:05:25;21.70;99.90
53272;DHT22;39160;48.580;7.756;2023-08-30T14:10:15;21.90;99.90
53272;DHT22;39160;48.580;7.756;2023-08-30T14:15:11;22.10;99.90
53272;DHT22;39160;48.580;7.756;2023-08-30T14:20:03;22.20;99.90
53272;DHT22;39160;48.580;7.756;2023-08-30T14:24:54;22.40;99.90
53272;DHT22;39160;48.580;7.756;2023-08-30T14:29:45;22.50;99.90
53272;DHT22;39160;48.580;7.756;2023-08-30T14:34:35;22.30;99.90
53272;DHT22;39160;48.580;7.756;2023-08-30T14:39:26;22.60;99.90
53272;DHT22;39160;48.580;7.756;2023-08-30T14:44:17;23.10;99.90
53272;DHT22;39160;48.580;7.756;2023-08-30T14:49:11;23.40;99.90
53272;DHT22;39160;48.580;7.756;2023-08-30T14:54:02;23.60;99.90
53272;DHT22;39160;48.580;7.756;2023-08-30T14:58:52;23.80;99.90
53272;DHT22;39160;48.580;7.756;2023-08-30T15:03:43;23.70;99.90
53272;DHT22;39160;48.580;7.756;2023-08-30T15:08:34;23.40;99.90
53272;DHT22;39160;48.580;7.756;2023-08-30T15:13:25;23.20;99.90
53272;DHT22;39160;48.580;7.756;2023-08-30T15:18:19;23.40;99.90
53272;DHT22;39160;48.580;7.756;2023-08-30T15:23:12;23.70;99.90
53272;DHT22;39160;48.580;7.756;2023-08-30T15:28:07;23.90;99.90
53272;DHT22;39160;48.580;7.756;2023-08-30T15:32:58;23.50;99.90
53272;DHT22;39160;48.580;7.756;2023-08-30T15:37:49;23.50;99.90
53272;DHT22;39160;48.580;7.756;2023-08-30T15:42:43;23.90;99.90
53272;DHT22;39160;48.580;7.756;2023-08-30T15:47:34;24.20;99.90
53272;DHT22;39160;48.580;7.756;2023-08-30T15:52:25;24.30;99.90
53272;DHT22;39160;48.580;7.756;2023-08-30T15:57:16;24.20;99.90
53272;DHT22;39160;48.580;7.756;2023-08-30T16:02:07;24.10;99.90
53272;DHT22;39160;48.580;7.756;2023-08-30T16:06:58;23.90;99.90
53272;DHT22;39160;48.580;7.756;2023-08-30T16:11:49;23.70;99.90
53272;DHT22;39160;48.580;7.756;2023-08-30T16:16:40;23.50;99.90
53272;DHT22;39160;48.580;7.756;2023-08-30T16:21:30;23.40;99.90
53272;DHT22;39160;48.580;7.756;2023-08-30T16:26:22;23.60;99.90
53272;DHT22;39160;48.580;7.756;2023-08-30T16:31:13;23.50;99.90
53272;DHT22;39160;48.580;7.756;2023-08-30T16:36:04;23.40;99.90
53272;DHT22;39160;48.580;7.756;2023-08-30T16:40:55;23.30;99.90
53272;DHT22;39160;48.580;7.756;2023-08-30T16:45:54;23.20;99.90
53272;DHT22;39160;48.580;7.756;2023-08-30T16:50:44;23.10;99.90
53272;DHT22;39160;48.580;7.756;2023-08-30T16:55:35;23.00;99.90
53272;DHT22;39160;48.580;7.756;2023-08-30T17:00:26;23.00;99.90
53272;DHT22;39160;48.580;7.756;2023-08-30T17:05:17;23.00;99.90
53272;DHT22;39160;48.580;7.756;2023-08-30T17:10:08;23.00;99.90
53272;DHT22;39160;48.580;7.756;2023-08-30T17:14:59;23.00;99.90
53272;DHT22;39160;48.580;7.756;2023-08-30T17:19:49;22.80;99.90
53272;DHT22;39160;48.580;7.756;2023-08-30T17:24:41;22.80;99.90
53272;DHT22;39160;48.580;7.756;2023-08-30T17:29:32;22.80;99.90
53272;DHT22;39160;48.580;7.756;2023-08-30T17:34:23;22.70;99.90
53272;DHT22;39160;48.580;7.756;2023-08-30T17:39:14;22.60;99.90
53272;DHT22;39160;48.580;7.756;2023-08-30T17:44:05;22.60;99.90
53272;DHT22;39160;48.580;7.756;2023-08-30T17:48:59;22.50;99.90
53272;DHT22;39160;48.580;7.756;2023-08-30T17:53:50;22.50;99.90
53272;DHT22;39160;48.580;7.756;2023-08-30T17:58:41;22.60;99.90
53272;DHT22;39160;48.580;7.756;2023-08-30T18:03:32;22.40;99.90
53272;DHT22;39160;48.580;7.756;2023-08-30T18:08:23;22.30;99.90
53272;DHT22;39160;48.580;7.756;2023-08-30T18:13:14;22.10;99.90
53272;DHT22;39160;48.580;7.756;2023-08-30T18:18:05;22.00;99.90
53272;DHT22;39160;48.580;7.756;2023-08-30T18:22:56;21.90;99.90
53272;DHT22;39160;48.580;7.756;2023-08-30T18:27:47;21.80;99.90
53272;DHT22;39160;48.580;7.756;2023-08-30T18:32:38;21.60;99.90
53272;DHT22;39160;48.580;7.756;2023-08-30T18:37:28;21.50;99.90
53272;DHT22;39160;48.580;7.756;2023-08-30T18:42:19;21.40;99.90
53272;DHT22;39160;48.580;7.756;2023-08-30T18:47:10;21.30;99.90
53272;DHT22;39160;48.580;7.756;2023-08-30T18:52:01;21.40;99.90
53272;DHT22;39160;48.580;7.756;2023-08-30T18:56:52;21.50;99.90
53272;DHT22;39160;48.580;7.756;2023-08-30T19:01:43;21.40;99.90
53272;DHT22;39160;48.580;7.756;2023-08-30T19:06:33;21.40;99.90
53272;DHT22;39160;48.580;7.756;2023-08-30T19:11:25;21.40;99.90
53272;DHT22;39160;48.580;7.756;2023-08-30T19:16:16;21.40;99.90
53272;DHT22;39160;48.580;7.756;2023-08-30T19:21:10;21.50;99.90
53272;DHT22;39160;48.580;7.756;2023-08-30T19:26:02;21.50;99.90
53272;DHT22;39160;48.580;7.756;2023-08-30T19:30:53;21.30;99.90
53272;DHT22;39160;48.580;7.756;2023-08-30T19:35:44;21.30;99.90
53272;DHT22;39160;48.580;7.756;2023-08-30T19:40:35;21.30;99.90
53272;DHT22;39160;48.580;7.756;2023-08-30T19:45:25;21.30;99.90
53272;DHT22;39160;48.580;7.756;2023-08-30T19:50:16;21.20;99.90
53272;DHT22;39160;48.580;7.756;2023-08-30T19:55:10;21.10;99.90
53272;DHT22;39160;48.580;7.756;2023-08-30T20:00:01;21.00;99.90
53272;DHT22;39160;48.580;7.756;2023-08-30T20:04:52;21.10;99.90
53272;DHT22;39160;48.580;7.756;2023-08-30T20:09:43;21.00;99.90
53272;DHT22;39160;48.580;7.756;2023-08-30T20:14:34;21.00;99.90
53272;DHT22;39160;48.580;7.756;2023-08-30T20:19:24;20.50;99.90
53272;DHT22;39160;48.580;7.756;2023-08-30T20:24:19;20.20;99.90
53272;DHT22;39160;48.580;7.756;2023-08-30T20:29:10;20.10;99.90
53272;DHT22;39160;48.580;7.756;2023-08-30T20:34:01;20.10;99.90
53272;DHT22;39160;48.580;7.756;2023-08-30T20:38:51;19.90;99.90
53272;DHT22;39160;48.580;7.756;2023-08-30T20:43:42;20.10;99.90
53272;DHT22;39160;48.580;7.756;2023-08-30T20:48:33;20.00;99.90
53272;DHT22;39160;48.580;7.756;2023-08-30T20:53:38;20.20;99.90
53272;DHT22;39160;48.580;7.756;2023-08-30T20:58:32;20.10;99.90
53272;DHT22;39160;48.580;7.756;2023-08-30T21:03:23;20.10;99.90
53272;DHT22;39160;48.580;7.756;2023-08-30T21:08:14;20.00;99.90
53272;DHT22;39160;48.580;7.756;2023-08-30T21:13:08;19.90;99.90
53272;DHT22;39160;48.580;7.756;2023-08-30T21:17:58;19.90;99.90
53272;DHT22;39160;48.580;7.756;2023-08-30T21:22:49;20.00;99.90
53272;DHT22;39160;48.580;7.756;2023-08-30T21:27:39;20.00;99.90
53272;DHT22;39160;48.580;7.756;2023-08-30T21:32:31;20.00;99.90
53272;DHT22;39160;48.580;7.756;2023-08-30T21:37:22;19.80;99.90
53272;DHT22;39160;48.580;7.756;2023-08-30T21:42:15;19.90;99.90
53272;DHT22;39160;48.580;7.756;2023-08-30T21:47:06;19.90;99.90
53272;DHT22;39160;48.580;7.756;2023-08-30T21:51:57;19.90;99.90
53272;DHT22;39160;48.580;7.756;2023-08-30T21:56:47;19.90;99.90
53272;DHT22;39160;48.580;7.756;2023-08-30T22:01:38;19.90;99.90
53272;DHT22;39160;48.580;7.756;2023-08-30T22:06:29;19.80;99.90
53272;DHT22;39160;48.580;7.756;2023-08-30T22:11:21;19.60;99.90
53272;DHT22;39160;48.580;7.756;2023-08-30T22:16:12;19.60;99.90
53272;DHT22;39160;48.580;7.756;2023-08-30T22:21:04;19.60;99.90
53272;DHT22;39160;48.580;7.756;2023-08-30T22:25:54;19.70;99.90
53272;DHT22;39160;48.580;7.756;2023-08-30T22:30:45;19.60;99.90
53272;DHT22;39160;48.580;7.756;2023-08-30T22:35:36;19.60;99.90
53272;DHT22;39160;48.580;7.756;2023-08-30T22:40:27;19.70;99.90
53272;DHT22;39160;48.580;7.756;2023-08-30T22:45:18;19.40;99.90
53272;DHT22;39160;48.580;7.756;2023-08-30T22:50:09;19.50;99.90
53272;DHT22;39160;48.580;7.756;2023-08-30T22:55:00;19.50;99.90
53272;DHT22;39160;48.580;7.756;2023-08-30T22:59:51;19.40;99.90
53272;DHT22;39160;48.580;7.756;2023-08-30T23:04:41;19.40;99.90
53272;DHT22;39160;48.580;7.756;2023-08-30T23:09:32;19.40;99.90
53272;DHT22;39160;48.580;7.756;2023-08-30T23:14:23;19.30;99.90
53272;DHT22;39160;48.580;7.756;2023-08-30T23:19:15;19.30;99.90
53272;DHT22;39160;48.580;7.756;2023-08-30T23:24:05;19.30;99.90
53272;DHT22;39160;48.580;7.756;2023-08-30T23:28:59;19.20;99.90
53272;DHT22;39160;48.580;7.756;2023-08-30T23:33:50;19.20;99.90
53272;DHT22;39160;48.580;7.756;2023-08-30T23:38:44;19.30;99.90
53272;DHT22;39160;48.580;7.756;2023-08-30T23:43:35;19.30;99.90
53272;DHT22;39160;48.580;7.756;2023-08-30T23:48:26;19.20;99.90
53272;DHT22;39160;48.580;7.756;2023-08-30T23:53:21;19.20;99.90
53272;DHT22;39160;48.580;7.756;2023-08-30T23:58:12;19.20;99.90
